Metar z pełnej godziny Komunikat METAR ze strony awiacja.imgw.pl Metar G00 EPLB METAR EPLB 291900Z 33007KT CAVOK 14/06 Q1018 =